Latest Weather Observations for Williamtown

IDN60901

Issued at 8:05 pm EST Monday 22 September 2014 (issued every 10 minutes, with the page automatically refreshed every 10 minutes)

About weather observations | Map of Sydney area stations | Latest observations for Sydney area | Other Formats
Station Details ID: 061078 Name: WILLIAMTOWN RAAF Lat: -32.79 Lon: 151.84 Height: 9.0 m
Data from the previous 72 hours. | See also: Recent months at Williamtown
Date/Time
EST
Tmp

°C
App
Tmp
°C
Dew
Point
°C
Rel
Hum
%
Delta-T

°C
Wind Press
QNH
hPa
Press
MSL
hPa
Rain
since
9 am
mm
Dir
 
Spd
km/h
Gust
km/h
Spd
kts
Gust
kts
22/08:00pm 11.3 9.5 9.5 89 0.9 NNE 9 9 5 5 1030.1 - 0.0
22/07:30pm 12.6 11.3 9.8 83 1.4 ENE 7 9 4 5 1029.9 - 0.0
22/07:00pm 13.0 11.7 10.1 82 1.5 NE 7 9 4 5 1029.9 - 0.0
22/06:30pm 15.3 13.3 10.1 71 2.7 ESE 11 15 6 8 1029.7 - 0.0
22/06:00pm 16.4 14.4 10.1 66 3.3 E 11 13 6 7 1029.4 1029.5 0.0
22/05:30pm 17.0 14.6 9.9 63 3.7 ESE 13 17 7 9 1029.3 - 0.0
22/05:00pm 17.5 14.2 9.6 60 4.1 ESE 17 24 9 13 1029.2 - 0.0
22/04:30pm 17.9 13.9 9.2 56 4.5 ESE 20 28 11 15 1029.0 - 0.0
22/04:00pm 18.1 14.2 8.8 54 4.8 ESE 19 26 10 14 1028.7 - 0.0
22/03:30pm 18.8 14.5 7.8 48 5.6 SE 20 30 11 16 1028.7 - 0.0
22/03:00pm 19.1 14.1 6.6 44 6.2 SE 22 28 12 15 1028.8 1028.9 0.0
22/02:30pm 19.7 15.2 7.0 43 6.4 ESE 20 28 11 15 1029.0 - 0.0
22/02:00pm 19.5 13.9 5.6 40 6.8 SSE 24 28 13 15 1029.1 - 0.0
22/01:30pm 19.7 14.7 6.4 42 6.7 SSE 22 32 12 17 1029.2 - 0.0
22/01:00pm 19.7 14.5 5.3 39 7.0 SE 22 28 12 15 1029.8 - 0.0
22/12:30pm 19.3 14.9 7.4 46 6.1 SSE 20 30 11 16 1030.3 - 0.0
22/12:00pm 19.6 15.5 7.8 46 6.0 SSE 19 28 10 15 1030.8 1030.9 0.0
22/11:30am 19.3 15.5 7.4 46 6.1 SSE 17 28 9 15 1031.1 - 0.0
22/11:00am 19.2 15.7 7.3 46 6.0 SE 15 24 8 13 1031.4 - 0.0
22/10:30am 18.8 15.9 8.0 49 5.5 SSE 13 17 7 9 1031.7 - 0.0
22/10:00am 18.8 15.9 8.2 50 5.5 ESE 13 19 7 10 1031.9 - 0.0
22/09:30am 17.6 15.9 9.8 60 4.1 NW 9 17 5 9 1032.0 - 0.0
22/09:00am 17.2 16.4 11.6 69 3.0 SW 7 15 4 8 1032.1 1032.2 0.2
22/08:30am 15.7 14.0 11.2 74 2.4 WNW 11 13 6 7 1032.1 - 0.2
22/08:00am 13.9 12.3 11.6 86 1.2 WNW 11 13 6 7 1031.9 - 0.2
22/07:30am 11.9 10.5 10.9 94 0.5 NW 9 11 5 6 1031.8 - 0.2
22/07:00am 10.5 10.5 9.9 96 0.3 CALM 0 0 0 0 1031.3 - 0.2
22/06:30am 9.5 9.3 9.1 97 0.2 CALM 0 0 0 0 1030.9 - 0.2
22/06:00am 8.3 7.8 7.9 97 0.2 WNW 0 0 0 0 1030.5 1030.6 0.2
22/05:30am 7.6 7.0 7.2 97 0.2 CALM 0 0 0 0 1030.0 - 0.2
22/05:00am 8.4 7.9 8.0 97 0.2 CALM 0 0 0 0 1029.7 - 0.2
22/04:30am 7.7 7.0 7.0 95 0.3 CALM 0 0 0 0 1029.4 - 0.2
22/04:00am 8.1 7.6 7.9 99 0.1 CALM 0 0 0 0 1029.2 - 0.2
22/03:30am 8.8 8.4 8.4 97 0.2 CALM 0 0 0 0 1029.2 - 0.2
22/03:00am 8.7 8.3 8.3 97 0.2 CALM 0 0 0 0 1029.2 1029.3 0.2
22/02:53am 8.4 7.9 7.8 96 0.3 CALM 0 0 0 0 1029.2 - 0.2
22/02:36am 8.9 8.5 8.3 96 0.3 CALM 0 0 0 0 1029.2 - 0.2
22/02:30am 8.0 7.4 7.4 96 0.3 CALM 0 0 0 0 1029.3 - 0.2
22/02:00am 8.7 8.3 8.1 96 0.3 CALM 0 0 0 0 1029.3 - 0.2
22/01:30am 8.8 8.3 7.7 93 0.5 CALM 0 0 0 0 1029.6 - 0.2
22/01:00am 8.8 7.3 8.4 97 0.2 NW 6 7 3 4 1029.8 - 0.2
22/12:30am 10.1 9.6 9.3 95 0.4 WNW 2 7 1 4 1030.1 - 0.2
22/12:00am 10.2 8.7 9.2 93 0.5 W 7 9 4 5 1030.2 1030.3 0.2
 
Date/Time
EST
Tmp

°C
App
Tmp
°C
Dew
Point
°C
Rel
Hum
%
Delta-T

°C
Wind Press
QNH
hPa
Press
MSL
hPa
Rain
since
9 am
mm
Dir
 
Spd
km/h
Gust
km/h
Spd
kts
Gust
kts
21/11:30pm 10.1 10.0 9.3 95 0.4 CALM 0 0 0 0 1030.2 - 0.2
21/11:00pm 9.3 9.0 8.5 95 0.4 CALM 0 0 0 0 1030.1 - 0.2
21/10:30pm 9.8 9.5 8.8 93 0.5 CALM 0 0 0 0 1030.2 - 0.2
21/10:00pm 10.4 10.3 9.4 93 0.5 CALM 0 0 0 0 1030.1 - 0.2
21/09:30pm 10.6 10.4 9.2 91 0.7 CALM 0 0 0 0 1030.2 - 0.2
21/09:00pm 10.5 10.4 9.3 92 0.6 CALM 0 0 0 0 1030.3 1030.4 0.2
21/08:30pm 11.9 11.1 9.7 86 1.1 NE 4 7 2 4 1030.4 - 0.2
21/08:00pm 12.7 11.5 10.2 85 1.3 ENE 7 9 4 5 1030.0 - 0.2
21/07:30pm 12.7 11.1 10.2 85 1.3 NE 9 13 5 7 1029.8 - 0.2
21/07:00pm 13.2 11.9 10.1 81 1.6 ENE 7 9 4 5 1029.4 - 0.2
21/06:30pm 14.2 12.6 10.3 77 2.0 E 9 11 5 6 1028.9 - 0.2
21/06:00pm 15.5 13.9 10.3 71 2.7 ESE 9 11 5 6 1028.6 1028.7 0.2
21/05:30pm 16.4 14.0 9.9 65 3.4 ESE 13 15 7 8 1028.1 - 0.2
21/05:00pm 17.1 13.9 9.8 62 3.8 SE 17 22 9 12 1027.6 - 0.2
21/04:30pm 17.5 13.5 9.0 57 4.4 SE 20 24 11 13 1027.3 - 0.2
21/04:00pm 17.4 14.0 9.3 59 4.2 SE 17 20 9 11 1027.1 - 0.2
21/03:30pm 18.6 14.7 9.4 55 4.8 SSE 20 30 11 16 1027.1 - 0.2
21/03:00pm 18.6 14.6 9.0 53 5.0 SSE 20 28 11 15 1027.5 1027.6 0.2
21/02:30pm 18.6 14.0 9.7 56 4.7 SSE 24 32 13 17 1027.7 - 0.2
21/02:00pm 19.1 15.3 8.9 51 5.3 SSE 19 26 10 14 1028.0 - 0.2
21/01:30pm 18.5 14.1 9.1 54 4.9 SE 22 28 12 15 1028.4 - 0.2
21/01:00pm 18.4 13.7 9.2 55 4.8 S 24 30 13 16 1028.8 - 0.2
21/12:30pm 19.0 13.7 9.9 55 4.8 SSE 28 32 15 17 1029.0 - 0.2
21/12:00pm 19.0 14.2 10.4 57 4.6 S 26 33 14 18 1029.3 1029.4 0.2
21/11:30am 18.3 14.6 10.2 59 4.3 S 20 26 11 14 1029.7 - 0.0
21/11:00am 18.4 15.1 11.0 62 4.0 SSE 19 30 10 16 1029.9 - 0.0
21/10:30am 17.2 13.8 10.4 64 3.6 SSE 19 22 10 12 1030.1 - 0.0
21/10:00am 17.7 16.2 10.5 62 3.8 SW 9 13 5 7 1029.9 - 0.0
21/09:30am 17.1 16.0 10.7 66 3.4 NW 7 11 4 6 1030.0 - 0.0
21/09:00am 15.8 14.2 11.5 75 2.3 NW 11 13 6 7 1030.0 1030.1 0.2
21/08:30am 14.1 11.9 10.8 80 1.7 NW 13 15 7 8 1029.9 - 0.2
21/08:00am 12.6 10.3 10.5 87 1.1 NNW 13 15 7 8 1029.5 - 0.2
21/07:30am 12.2 9.9 10.4 89 0.9 NW 13 15 7 8 1029.4 - 0.2
21/07:00am 11.7 9.4 10.5 92 0.6 NW 13 17 7 9 1029.0 - 0.2
21/06:30am 11.2 9.6 10.2 94 0.5 NW 9 13 5 7 1028.6 - 0.2
21/06:00am 10.7 8.1 9.5 92 0.6 NW 13 17 7 9 1028.1 1028.2 0.2
21/05:30am 10.1 8.2 9.1 93 0.5 NNW 9 11 5 6 1027.7 - 0.2
21/05:00am 9.5 6.7 8.5 93 0.5 NNW 13 13 7 7 1027.2 - 0.2
21/04:30am 9.2 6.3 8.2 93 0.5 NW 13 15 7 8 1027.1 - 0.2
21/04:00am 9.0 6.4 7.9 93 0.5 NW 11 13 6 7 1026.9 - 0.2
21/03:30am 9.7 7.3 8.5 92 0.6 NNW 11 13 6 7 1027.0 - 0.2
21/03:00am 10.0 7.6 8.8 92 0.6 NNW 11 13 6 7 1026.9 1027.0 0.2
21/02:30am 10.0 7.3 8.8 92 0.6 NW 13 13 7 7 1027.0 - 0.2
21/02:00am 10.0 7.6 8.6 91 0.7 NW 11 17 6 9 1027.3 - 0.0
21/01:30am 8.9 6.6 7.6 91 0.6 NW 9 13 5 7 1027.3 - 0.0
21/01:00am 9.2 6.9 7.5 89 0.8 WNW 9 9 5 5 1027.3 - 0.0
21/12:30am 9.4 6.8 7.9 90 0.7 NW 11 13 6 7 1027.5 - 0.0
21/12:00am 9.8 7.3 8.3 90 0.7 NW 11 13 6 7 1027.7 1027.8 0.0
 
Date/Time
EST
Tmp

°C
App
Tmp
°C
Dew
Point
°C
Rel
Hum
%
Delta-T

°C
Wind Press
QNH
hPa
Press
MSL
hPa
Rain
since
9 am
mm
Dir
 
Spd
km/h
Gust
km/h
Spd
kts
Gust
kts
20/11:30pm 9.6 7.4 7.7 88 0.9 WNW 9 13 5 7 1027.7 - 0.0
20/11:00pm 9.9 7.3 7.8 87 1.0 NW 11 13 6 7 1027.7 - 0.0
20/10:30pm 9.8 7.6 7.7 87 1.0 NW 9 11 5 6 1027.6 - 0.0
20/10:00pm 8.9 6.9 7.0 88 0.9 NW 7 7 4 4 1027.4 - 0.0
20/09:30pm 9.1 7.1 6.9 86 1.0 NW 7 7 4 4 1027.4 - 0.0
20/09:00pm 8.6 7.9 6.9 89 0.8 CALM 0 0 0 0 1027.3 1027.4 0.0
20/08:30pm 9.7 9.0 6.9 83 1.3 CALM 0 0 0 0 1027.1 - 0.0
20/08:00pm 10.8 9.8 7.2 78 1.7 SSE 2 7 1 4 1026.7 - 0.0
20/07:30pm 12.7 10.4 7.3 69 2.6 S 9 11 5 6 1026.4 - 0.0
20/07:00pm 13.7 11.1 7.6 66 3.0 S 11 15 6 8 1026.1 - 0.0
20/06:30pm 14.3 11.3 7.8 65 3.2 SSE 13 17 7 9 1025.5 - 0.0
20/06:00pm 15.1 12.1 7.8 61 3.6 SSE 13 22 7 12 1025.0 1025.1 0.0
20/05:30pm 16.0 11.9 7.8 58 4.1 SSE 19 26 10 14 1024.6 - 0.0
20/05:00pm 16.7 11.6 7.7 55 4.5 SSE 24 30 13 16 1024.1 - 0.0
20/04:30pm 16.6 11.0 7.3 54 4.6 S 26 33 14 18 1023.8 - 0.0
20/04:00pm 17.7 11.9 8.0 53 4.9 S 28 37 15 20 1023.6 - 0.0
20/03:30pm 17.9 12.6 8.3 53 4.9 S 26 35 14 19 1023.1 - 0.0
20/03:00pm 17.9 12.7 9.0 56 4.6 SSE 26 32 14 17 1023.1 1023.2 0.0
20/02:30pm 18.4 13.3 9.2 55 4.8 SSE 26 37 14 20 1023.1 - 0.0
20/02:00pm 18.5 13.3 8.9 53 5.0 S 26 35 14 19 1023.2 - 0.0
20/01:30pm 19.1 13.1 3.5 35 7.3 SSE 24 32 13 17 1023.2 - 0.0
20/01:00pm 18.8 12.7 4.8 39 6.7 S 26 32 14 17 1023.3 - 0.0
20/12:30pm 19.4 13.9 5.7 40 6.7 SSE 24 30 13 16 1023.4 - 0.0
20/12:00pm 18.7 13.1 5.5 42 6.4 SSE 24 30 13 16 1023.5 1023.6 0.0
20/11:30am 18.4 14.1 7.0 47 5.7 SSE 19 28 10 15 1023.8 - 0.0
20/11:00am 18.8 15.7 5.7 42 6.4 WSW 11 20 6 11 1023.9 - 0.0
20/10:30am 18.0 15.9 5.9 45 5.9 WSW 6 11 3 6 1024.1 - 0.0
20/10:00am 16.9 14.3 6.2 49 5.2 W 9 13 5 7 1024.3 - 0.0
20/09:30am 15.7 12.3 6.1 53 4.6 WNW 13 19 7 10 1024.4 - 0.0
20/09:00am 14.5 10.5 5.1 53 4.4 NW 15 19 8 10 1024.3 1024.4 0.0
20/08:30am 13.0 8.6 4.9 58 3.7 NW 17 22 9 12 1024.2 - 0.0
20/08:00am 11.4 7.4 4.8 64 3.0 NW 15 20 8 11 1023.9 - 0.0
20/07:30am 9.6 6.2 5.9 78 1.7 WNW 13 15 7 8 1023.8 - 0.0
20/07:00am 8.2 5.5 5.5 83 1.2 WNW 9 11 5 6 1023.3 - 0.0
20/06:30am 6.7 3.9 5.1 89 0.7 WNW 9 13 5 7 1022.9 - 0.0
20/06:00am 5.9 2.2 4.5 91 0.6 NW 13 15 7 8 1022.2 1022.3 0.0
20/05:30am 5.3 1.6 4.4 94 0.4 NW 13 15 7 8 1021.9 - 0.0
20/05:00am 5.3 2.0 4.4 94 0.4 WNW 11 13 6 7 1021.4 - 0.0
20/04:30am 5.3 2.4 4.4 94 0.4 NW 9 11 5 6 1021.1 - 0.0
20/04:00am 5.6 2.7 4.7 94 0.4 NW 9 9 5 5 1020.8 - 0.0
20/03:30am 5.2 2.2 4.3 94 0.4 NW 9 11 5 6 1020.9 - 0.0
20/03:00am 5.0 2.0 4.3 95 0.3 WNW 9 11 5 6 1020.8 1020.9 0.0
20/02:30am 4.7 3.4 4.0 95 0.3 CALM 0 9 0 5 1020.9 - 0.0
20/02:00am 4.4 3.0 3.7 95 0.3 CALM 0 0 0 0 1021.0 - 0.0
20/01:30am 4.6 3.3 3.9 95 0.3 CALM 0 0 0 0 1021.3 - 0.0
20/01:00am 5.4 4.2 4.5 94 0.4 CALM 0 0 0 0 1021.3 - 0.0
20/12:30am 5.5 4.2 4.3 92 0.5 CALM 0 0 0 0 1021.4 - 0.0
20/12:00am 5.2 3.9 4.3 94 0.4 CALM 0 0 0 0 1021.5 1021.6 0.0
 
Date/Time
EST
Tmp

°C
App
Tmp
°C
Dew
Point
°C
Rel
Hum
%
Delta-T

°C
Wind Press
QNH
hPa
Press
MSL
hPa
Rain
since
9 am
mm
Dir
 
Spd
km/h
Gust
km/h
Spd
kts
Gust
kts
19/11:30pm 5.8 4.6 4.6 92 0.5 CALM 0 0 0 0 1021.8 - 0.0
19/11:00pm 6.4 5.2 4.8 89 0.7 CALM 0 0 0 0 1021.9 - 0.0
19/10:30pm 6.6 5.4 4.8 88 0.8 CALM 0 0 0 0 1021.9 - 0.0
19/10:00pm 7.0 5.9 5.2 88 0.8 CALM 0 0 0 0 1021.8 - 0.0
19/09:30pm 7.6 6.5 4.9 83 1.2 CALM 0 0 0 0 1021.5 - 0.0
19/09:00pm 7.6 6.5 5.1 84 1.1 CALM 0 0 0 0 1021.3 1021.4 0.0
19/08:30pm 8.2 6.8 5.3 82 1.3 N 2 7 1 4 1021.2 - 0.0

Latest Capital City Observations: Canberra | Sydney | Melbourne | Brisbane | Adelaide | Perth | Hobart | Darwin

Other Formats:

Comma delimited format used in spreadsheet applications
http://www.bom.gov.au/fwo/IDN60901/IDN60901.94776.axf

JavaScript Object Notation format (JSON) in row-major order
http://www.bom.gov.au/fwo/IDN60901/IDN60901.94776.json